Time;durP1;ratioP1;P1;durP2;ratioP2;P2;SDS_P1;SDS_P2;PMS_P1;PMS_P2;Temp;Humidity;BMP_temperature;BMP_pressure;BME280_temperature;BME280_humidity;BME280_pressure;Samples;Min_cycle;Max_cycle;Signal;HPM_P1;HPM_P2
2022/03/05 00:01:18;;;;;;;36.13;17.73;;;1.10;99.90;;;;;;4158818;28;20271;-68
2022/03/05 00:03:19;;;;;;;41.10;17.37;;;1.10;99.90;;;;;;4158652;28;20255;-69
2022/03/05 00:05:20;;;;;;;42.47;19.33;;;1.10;99.90;;;;;;4158762;28;20824;-61
2022/03/05 00:07:21;;;;;;;40.37;18.23;;;1.10;99.90;;;;;;4166332;28;20431;-58
2022/03/05 00:09:22;;;;;;;40.90;18.17;;;1.10;99.90;;;;;;4163999;28;20307;-60
2022/03/05 00:11:23;;;;;;;35.87;16.50;;;1.10;99.90;;;;;;4159468;28;20301;-58
2022/03/05 00:13:25;;;;;;;39.50;17.50;;;1.10;99.90;;;;;;4158293;28;20255;-61
2022/03/05 00:15:26;;;;;;;40.90;17.93;;;1.10;99.90;;;;;;4157557;28;20271;-66
2022/03/05 00:17:27;;;;;;;37.97;17.53;;;1.10;99.90;;;;;;4157355;28;20781;-64
2022/03/05 00:19:28;;;;;;;37.97;17.47;;;1.00;99.90;;;;;;4158766;28;20833;-64
2022/03/05 00:21:29;;;;;;;41.53;18.13;;;1.10;99.90;;;;;;4158764;28;20277;-68
2022/03/05 00:23:30;;;;;;;37.90;17.70;;;1.00;99.90;;;;;;4173041;28;20355;-56
2022/03/05 00:25:32;;;;;;;39.67;17.33;;;1.00;99.90;;;;;;4159410;28;20302;-72
2022/03/05 00:27:33;;;;;;;40.47;17.17;;;1.00;99.90;;;;;;4159267;28;20287;-46
2022/03/05 00:29:34;;;;;;;34.10;16.73;;;1.00;99.90;;;;;;4164948;28;20270;-69
2022/03/05 00:31:36;;;;;;;34.33;16.53;;;1.00;99.90;;;;;;4173307;28;20335;-56
2022/03/05 00:33:37;;;;;;;36.53;17.80;;;1.10;99.90;;;;;;4174582;28;20254;-67
2022/03/05 00:35:38;;;;;;;38.90;17.47;;;1.00;99.90;;;;;;4173366;28;20940;-67
2022/03/05 00:37:39;;;;;;;39.97;17.40;;;1.00;99.90;;;;;;4173861;28;20351;-70
2022/03/05 00:39:41;;;;;;;41.80;18.27;;;1.10;99.90;;;;;;4170885;28;20273;-63
2022/03/05 00:41:42;;;;;;;39.67;17.83;;;1.10;99.90;;;;;;4158654;28;20325;-68
2022/03/05 00:43:43;;;;;;;39.90;17.73;;;1.10;99.90;;;;;;4157299;28;20263;-69
2022/03/05 00:45:47;;;;;;;40.83;18.50;;;1.10;99.90;;;;;;4159377;28;20305;-72
2022/03/05 00:47:48;;;;;;;45.03;18.20;;;1.10;99.90;;;;;;4157138;28;20380;-65
2022/03/05 00:49:50;;;;;;;41.57;19.33;;;1.10;99.90;;;;;;4156697;28;20329;-67
2022/03/05 00:51:52;;;;;;;43.00;18.53;;;1.10;99.90;;;;;;4157204;28;20278;-69
2022/03/05 00:53:53;;;;;;;42.20;18.57;;;1.10;99.90;;;;;;4158435;28;20682;-65
2022/03/05 00:55:54;;;;;;;43.47;19.83;;;1.10;99.90;;;;;;4169337;28;20286;-55
2022/03/05 00:57:56;;;;;;;42.47;19.23;;;1.10;99.90;;;;;;4173455;28;21056;-73
2022/03/05 00:59:57;;;;;;;39.20;18.60;;;1.10;99.90;;;;;;4164770;28;20339;-65
2022/03/05 01:03:59;;;;;;;43.67;20.17;;;1.00;99.90;;;;;;4175848;23;20294;-65
2022/03/05 01:06:00;;;;;;;45.07;20.93;;;0.90;99.90;;;;;;4161660;28;20129;-51
2022/03/05 01:08:01;;;;;;;36.20;17.47;;;0.90;99.90;;;;;;4173549;28;20289;-58
2022/03/05 01:10:04;;;;;;;43.37;19.37;;;0.90;99.90;;;;;;4175928;28;21050;-70
2022/03/05 01:12:05;;;;;;;44.53;19.97;;;0.90;99.90;;;;;;4176745;28;20274;-65
2022/03/05 01:14:07;;;;;;;44.20;19.60;;;1.00;99.90;;;;;;4173188;28;20266;-72
2022/03/05 01:16:08;;;;;;;39.33;18.53;;;1.00;99.90;;;;;;4174732;28;20277;-63
2022/03/05 01:18:09;;;;;;;42.67;18.80;;;1.00;99.90;;;;;;4172875;28;20320;-54
2022/03/05 01:20:11;;;;;;;42.37;19.70;;;1.10;99.90;;;;;;4174529;28;20278;-52
2022/03/05 01:22:12;;;;;;;44.97;19.47;;;1.10;99.90;;;;;;4151374;28;20263;-67
2022/03/05 01:24:14;;;;;;;48.07;21.17;;;1.10;99.90;;;;;;4173616;28;20266;-62
2022/03/05 01:26:15;;;;;;;40.00;17.90;;;1.00;99.90;;;;;;4173245;28;20831;-68
2022/03/05 01:28:16;;;;;;;41.90;19.40;;;1.00;99.90;;;;;;4173669;28;20265;-65
2022/03/05 01:30:17;;;;;;;38.43;18.00;;;1.00;99.90;;;;;;4166881;28;20348;-65
2022/03/05 01:32:18;;;;;;;42.23;18.37;;;1.00;99.90;;;;;;4156629;28;20348;-66
2022/03/05 01:34:20;;;;;;;44.20;19.10;;;1.00;99.90;;;;;;4158201;28;20336;-47
2022/03/05 01:36:21;;;;;;;35.87;18.87;;;1.00;99.90;;;;;;4156636;28;20708;-69
2022/03/05 01:38:22;;;;;;;40.03;19.37;;;1.10;99.90;;;;;;4157710;28;20723;-69
2022/03/05 01:40:23;;;;;;;38.50;17.83;;;1.10;99.90;;;;;;4156383;28;20904;-63
2022/03/05 01:42:25;;;;;;;38.20;17.97;;;1.10;99.90;;;;;;4156524;28;20348;-67
2022/03/05 01:44:27;;;;;;;40.43;17.73;;;1.10;99.90;;;;;;4172247;28;20278;-51
2022/03/05 01:46:35;;;;;;;39.63;18.17;;;1.10;99.90;;;;;;4173678;28;20828;-60
2022/03/05 01:48:36;;;;;;;39.53;17.67;;;1.10;99.90;;;;;;4156803;28;20325;-63
2022/03/05 01:50:38;;;;;;;40.23;18.47;;;1.10;99.90;;;;;;4157790;28;20267;-68
2022/03/05 01:52:39;;;;;;;39.00;17.40;;;1.10;99.90;;;;;;4156199;28;20283;-72
2022/03/05 01:54:41;;;;;;;33.87;16.37;;;1.10;99.90;;;;;;4157795;28;20282;-68
2022/03/05 01:56:42;;;;;;;38.00;17.63;;;1.10;99.90;;;;;;4156878;28;20674;-68
2022/03/05 01:58:44;;;;;;;43.40;18.20;;;1.10;99.90;;;;;;4170366;28;20265;-70
2022/03/05 02:00:45;;;;;;;38.43;18.13;;;1.10;99.90;;;;;;4173423;28;20403;-74
2022/03/05 02:02:47;;;;;;;35.67;17.67;;;1.10;99.90;;;;;;4209145;22;20297;-68
2022/03/05 02:04:48;;;;;;;35.57;18.00;;;1.10;99.90;;;;;;4206498;28;20337;-72
2022/03/05 02:06:51;;;;;;;35.70;18.23;;;1.10;99.90;;;;;;4206073;28;20751;-49
2022/03/05 02:08:55;;;;;;;44.93;18.07;;;1.10;99.90;;;;;;4188663;28;20315;-69
2022/03/05 02:10:57;;;;;;;35.47;17.10;;;1.00;99.90;;;;;;4205438;28;20284;-53
2022/03/05 02:12:58;;;;;;;36.20;16.73;;;1.00;99.90;;;;;;4206775;28;20773;-74
2022/03/05 02:14:59;;;;;;;38.50;17.70;;;1.00;99.90;;;;;;4206022;28;20298;-69
2022/03/05 02:17:02;;;;;;;39.43;18.40;;;0.90;99.90;;;;;;4206906;28;20318;-47
2022/03/05 02:19:05;;;;;;;36.90;17.87;;;0.90;99.90;;;;;;4206905;28;20277;-70
2022/03/05 02:21:06;;;;;;;40.20;18.47;;;0.90;99.90;;;;;;4212343;28;20264;-52
2022/03/05 02:23:07;;;;;;;40.27;18.00;;;1.00;99.90;;;;;;4222494;28;20252;-62
2022/03/05 02:25:09;;;;;;;39.67;18.93;;;1.00;99.90;;;;;;4223178;28;20298;-67
2022/03/05 02:27:10;;;;;;;35.93;17.53;;;1.00;99.90;;;;;;4221987;28;20717;-59
2022/03/05 02:29:11;;;;;;;40.47;17.70;;;1.00;99.90;;;;;;4221579;28;20338;-67
2022/03/05 02:31:12;;;;;;;33.87;17.30;;;1.00;99.90;;;;;;4205071;28;20318;-53
2022/03/05 02:33:14;;;;;;;35.97;17.00;;;1.00;99.90;;;;;;4205822;28;20631;-60
2022/03/05 02:35:15;;;;;;;34.07;16.77;;;1.00;99.90;;;;;;4205847;28;20902;-63
2022/03/05 02:37:17;;;;;;;38.20;17.60;;;1.00;99.90;;;;;;4205755;28;20273;-60
2022/03/05 02:39:18;;;;;;;34.77;18.13;;;0.90;99.90;;;;;;4188135;28;20315;-61
2022/03/05 02:41:20;;;;;;;39.30;17.73;;;0.90;99.90;;;;;;4205732;28;20269;-61
2022/03/05 02:43:22;;;;;;;34.43;16.17;;;0.90;99.90;;;;;;4189302;28;20273;-63
2022/03/05 02:45:23;;;;;;;40.17;17.80;;;0.80;99.90;;;;;;4222327;28;20287;-68
2022/03/05 02:47:24;;;;;;;37.37;17.13;;;0.80;99.90;;;;;;4218147;28;20347;-54
2022/03/05 02:49:26;;;;;;;36.53;17.60;;;0.80;99.90;;;;;;4363330;22;20306;-55
2022/03/05 02:51:27;;;;;;;39.43;17.90;;;0.80;99.90;;;;;;4182890;28;20331;-65
2022/03/05 02:53:29;;;;;;;39.30;17.70;;;0.80;99.90;;;;;;4184843;28;20301;-57
2022/03/05 02:55:31;;;;;;;40.97;18.73;;;0.80;99.90;;;;;;4179475;28;20273;-60
2022/03/05 02:57:32;;;;;;;38.80;17.43;;;0.70;99.90;;;;;;4183196;28;20269;-56
2022/03/05 02:59:33;;;;;;;40.63;18.40;;;0.70;99.90;;;;;;4192614;28;20262;-53
2022/03/05 03:01:34;;;;;;;39.03;17.10;;;0.70;99.90;;;;;;4191875;28;20319;-52
2022/03/05 03:03:36;;;;;;;40.57;17.77;;;0.70;99.90;;;;;;4192489;28;20262;-62
2022/03/05 03:05:37;;;;;;;40.77;17.97;;;0.70;99.90;;;;;;4189119;28;20753;-68
2022/03/05 03:07:38;;;;;;;40.63;19.97;;;0.60;99.90;;;;;;4191827;28;20696;-68
2022/03/05 03:09:39;;;;;;;42.73;19.03;;;0.60;99.90;;;;;;4191414;28;20716;-66
2022/03/05 03:11:40;;;;;;;37.40;17.37;;;0.70;99.90;;;;;;4192794;28;20265;-65
2022/03/05 03:13:41;;;;;;;40.40;19.30;;;0.60;99.90;;;;;;4192440;28;20266;-74
2022/03/05 03:15:43;;;;;;;39.17;17.80;;;0.70;99.90;;;;;;4192647;28;20326;-66
2022/03/05 03:17:48;;;;;;;47.60;22.23;;;0.70;99.90;;;;;;4170652;28;20844;-51
2022/03/05 03:19:50;;;;;;;43.43;19.33;;;0.70;99.90;;;;;;4176161;28;20668;-58
2022/03/05 03:21:51;;;;;;;46.70;19.47;;;0.70;99.90;;;;;;4158504;28;20271;-65
2022/03/05 03:23:52;;;;;;;40.60;19.67;;;0.70;99.90;;;;;;4187906;28;20307;-56
2022/03/05 03:25:53;;;;;;;41.17;20.23;;;0.70;99.90;;;;;;4191923;28;20331;-74
2022/03/05 03:27:54;;;;;;;44.07;20.53;;;0.70;99.90;;;;;;4191495;28;20777;-66
2022/03/05 03:29:56;;;;;;;44.30;19.90;;;0.70;99.90;;;;;;4192601;28;20269;-60
2022/03/05 03:31:57;;;;;;;46.77;21.57;;;0.80;99.90;;;;;;4190826;28;20327;-67
2022/03/05 03:33:58;;;;;;;41.30;19.30;;;0.80;99.90;;;;;;4176159;28;20286;-49
2022/03/05 03:35:59;;;;;;;44.40;21.07;;;0.70;99.90;;;;;;4175105;28;20274;-72
2022/03/05 03:38:00;;;;;;;41.20;19.40;;;0.70;99.90;;;;;;4157747;28;20295;-71
2022/03/05 03:40:04;;;;;;;37.67;17.97;;;0.70;99.90;;;;;;4175737;28;20281;-47
2022/03/05 03:42:06;;;;;;;42.27;19.80;;;0.60;99.90;;;;;;4176347;28;20649;-68
2022/03/05 03:44:07;;;;;;;44.43;20.67;;;0.70;99.90;;;;;;4175211;28;20678;-69
2022/03/05 03:46:08;;;;;;;46.00;19.67;;;0.70;99.90;;;;;;4176056;28;20331;-67
2022/03/05 03:48:09;;;;;;;50.17;21.07;;;0.70;99.90;;;;;;4174417;28;20282;-69
2022/03/05 03:50:13;;;;;;;45.50;20.53;;;0.70;99.90;;;;;;4188980;28;20330;-60
2022/03/05 03:52:14;;;;;;;46.30;19.97;;;0.60;99.90;;;;;;4191309;28;20270;-54
2022/03/05 03:54:17;;;;;;;43.57;19.70;;;0.60;99.90;;;;;;4191831;28;20821;-51
2022/03/05 03:58:29;;;;;;;;;;;0.60;99.90;;;;;;4338938;22;20318;-67
2022/03/05 04:00:30;;;;;;;;;;;0.60;99.90;;;;;;4163607;28;19909;-59
2022/03/05 04:02:31;;;;;;;38.33;18.10;;;0.70;99.90;;;;;;4169505;28;20333;-59
2022/03/05 04:04:32;;;;;;;44.57;19.67;;;0.70;99.90;;;;;;4174260;28;20106;-51
2022/03/05 04:08:53;;;;;;;48.20;21.47;;;0.70;99.90;;;;;;4157690;28;20329;-66
2022/03/05 04:10:54;;;;;;;50.53;21.70;;;0.60;99.90;;;;;;4158972;28;20286;-67
2022/03/05 04:12:55;;;;;;;44.57;19.97;;;0.60;99.90;;;;;;4157425;28;20320;-71
2022/03/05 04:14:57;;;;;;;47.17;19.73;;;0.70;99.90;;;;;;4167276;28;20270;-64
2022/03/05 04:16:58;;;;;;;50.07;21.07;;;0.70;99.90;;;;;;4174390;28;20742;-64
2022/03/05 04:18:59;;;;;;;46.20;20.47;;;0.80;99.90;;;;;;4174454;28;20308;-62
2022/03/05 04:21:01;;;;;;;44.87;19.17;;;0.80;99.90;;;;;;4174466;28;20266;-53
2022/03/05 04:23:02;;;;;;;48.93;21.57;;;0.80;99.90;;;;;;4173923;28;20743;-53
2022/03/05 04:25:04;;;;;;;44.93;21.23;;;0.90;99.90;;;;;;4175053;28;20269;-53
2022/03/05 04:27:05;;;;;;;50.70;23.90;;;0.80;99.90;;;;;;4173049;28;20266;-66
2022/03/05 04:29:06;;;;;;;47.23;21.70;;;0.80;99.90;;;;;;4171947;28;20297;-62
2022/03/05 04:31:07;;;;;;;46.37;21.37;;;0.80;99.90;;;;;;4157348;28;20263;-58
2022/03/05 04:33:10;;;;;;;45.10;20.20;;;0.80;99.90;;;;;;4257007;22;20312;-55
2022/03/05 04:35:11;;;;;;;49.67;21.37;;;0.80;99.90;;;;;;4176709;28;20940;-57
2022/03/05 04:37:12;;;;;;;53.43;20.33;;;0.80;99.90;;;;;;4185875;28;20261;-59
2022/03/05 04:39:14;;;;;;;46.93;19.93;;;0.80;99.90;;;;;;4190355;28;20277;-76
2022/03/05 04:41:15;;;;;;;38.47;17.80;;;0.80;99.90;;;;;;4191217;28;20269;-51
2022/03/05 04:43:16;;;;;;;40.87;19.30;;;0.80;99.90;;;;;;4190349;28;20273;-49
2022/03/05 04:45:17;;;;;;;40.63;19.20;;;0.90;99.90;;;;;;4191340;28;20750;-61
2022/03/05 04:47:19;;;;;;;41.90;17.73;;;0.90;99.90;;;;;;4190582;28;20872;-52
2022/03/05 04:49:20;;;;;;;48.40;20.20;;;0.90;99.90;;;;;;4190731;28;20274;-49
2022/03/05 04:51:21;;;;;;;39.70;18.77;;;0.90;99.90;;;;;;4190212;28;20257;-68
2022/03/05 04:53:22;;;;;;;45.23;19.17;;;0.90;99.90;;;;;;4190096;28;20757;-51
2022/03/05 04:55:24;;;;;;;43.43;21.40;;;0.80;99.90;;;;;;4190343;28;20361;-71
2022/03/05 04:57:25;;;;;;;43.57;20.60;;;0.80;99.90;;;;;;4190255;28;20273;-64
2022/03/05 04:59:26;;;;;;;47.07;20.47;;;0.80;99.90;;;;;;4191772;28;20319;-61
2022/03/05 05:01:27;;;;;;;46.37;20.87;;;0.80;99.90;;;;;;4189075;28;20327;-57
2022/03/05 05:03:29;;;;;;;43.43;20.10;;;0.70;99.90;;;;;;4191201;28;20323;-68
2022/03/05 05:05:30;;;;;;;49.57;21.40;;;0.70;99.90;;;;;;4174795;28;20915;-57
2022/03/05 05:07:32;;;;;;;40.30;19.87;;;0.60;99.90;;;;;;4188727;28;20347;-61
2022/03/05 05:09:33;;;;;;;42.23;20.00;;;0.70;99.90;;;;;;4190253;28;20355;-66
2022/03/05 05:11:34;;;;;;;46.60;20.53;;;0.60;99.90;;;;;;4190576;28;20488;-53
2022/03/05 05:13:35;;;;;;;54.53;19.90;;;0.60;99.90;;;;;;4189940;28;20689;-67
2022/03/05 05:15:36;;;;;;;45.77;20.73;;;0.60;99.90;;;;;;4176257;28;20274;-47
2022/03/05 05:17:38;;;;;;;48.77;22.50;;;0.60;99.90;;;;;;4173428;28;21116;-60
2022/03/05 05:19:39;;;;;;;47.57;22.10;;;0.70;99.90;;;;;;4173353;28;20743;-65
2022/03/05 05:21:40;;;;;;;51.17;23.00;;;0.60;99.90;;;;;;4173668;28;20608;-64
2022/03/05 05:23:41;;;;;;;52.50;23.00;;;0.70;99.90;;;;;;4520585;22;20298;-71
2022/03/05 05:25:43;;;;;;;47.60;22.43;;;0.60;99.90;;;;;;4161640;28;20287;-69
2022/03/05 05:27:45;;;;;;;52.20;22.30;;;0.60;99.90;;;;;;4157996;28;20917;-65
2022/03/05 05:29:46;;;;;;;53.30;22.67;;;0.60;99.90;;;;;;4174497;28;20289;-67
2022/03/05 05:31:47;;;;;;;50.90;21.37;;;0.60;99.90;;;;;;4172532;28;20273;-67
2022/03/05 05:33:51;;;;;;;46.93;22.20;;;0.60;99.90;;;;;;4154408;28;20813;-69
2022/03/05 05:35:53;;;;;;;48.43;20.40;;;0.60;99.90;;;;;;4164312;28;20269;-59
2022/03/05 05:37:54;;;;;;;57.67;24.13;;;0.60;99.90;;;;;;4174398;28;20316;-75
2022/03/05 05:39:55;;;;;;;48.10;22.57;;;0.70;99.90;;;;;;4171526;28;20274;-47
2022/03/05 05:41:57;;;;;;;51.47;24.10;;;0.70;99.90;;;;;;4144115;28;20310;-69
2022/03/05 05:43:58;;;;;;;51.10;22.23;;;0.80;99.90;;;;;;4156667;28;20263;-71
2022/03/05 05:45:59;;;;;;;47.00;20.20;;;0.80;99.90;;;;;;4140340;28;20280;-68
2022/03/05 05:48:02;;;;;;;52.73;21.33;;;0.80;99.90;;;;;;4138872;28;20303;-68
2022/03/05 05:50:05;;;;;;;44.17;21.13;;;0.70;99.90;;;;;;4157263;28;20796;-52
2022/03/05 05:52:06;;;;;;;43.80;19.77;;;0.60;99.90;;;;;;4156931;28;20321;-63
2022/03/05 05:54:08;;;;;;;46.90;20.50;;;0.60;99.90;;;;;;4281771;23;20780;-54
2022/03/05 05:56:09;;;;;;;46.70;21.50;;;0.60;99.90;;;;;;4184455;28;20277;-68
2022/03/05 05:58:10;;;;;;;43.87;19.50;;;0.80;99.90;;;;;;4179603;28;20721;-84
2022/03/05 06:00:12;;;;;;;48.60;20.40;;;1.00;99.90;;;;;;4172872;28;20681;-73
2022/03/05 06:02:13;;;;;;;41.77;19.10;;;1.20;99.90;;;;;;4183369;28;20310;-81
2022/03/05 06:04:14;;;;;;;43.33;20.87;;;1.30;99.90;;;;;;4171749;28;20841;-81
2022/03/05 06:06:16;;;;;;;42.37;20.87;;;1.40;99.90;;;;;;4190573;28;20249;-65
2022/03/05 06:08:17;;;;;;;46.70;20.30;;;1.50;99.90;;;;;;4171298;28;20306;-65
2022/03/05 06:10:18;;;;;;;38.03;18.87;;;1.60;99.90;;;;;;4190253;28;21237;-44
2022/03/05 06:12:19;;;;;;;44.20;19.63;;;1.70;99.90;;;;;;4190415;28;20257;-83
2022/03/05 06:14:20;;;;;;;49.87;22.10;;;1.90;99.90;;;;;;4190697;28;20598;-53
2022/03/05 06:16:22;;;;;;;50.13;23.97;;;1.90;99.90;;;;;;4189791;28;20265;-73
2022/03/05 06:18:23;;;;;;;54.60;23.33;;;1.90;99.90;;;;;;4191199;28;20616;-85
2022/03/05 06:20:25;;;;;;;61.20;23.47;;;1.70;99.90;;;;;;4194925;28;20722;-83
2022/03/05 06:22:26;;;;;;;62.83;24.97;;;1.60;99.90;;;;;;4190979;28;20562;-62
2022/03/05 06:24:28;;;;;;;48.97;22.07;;;1.60;99.90;;;;;;4190987;28;20277;-56
2022/03/05 06:26:31;;;;;;;50.93;24.00;;;1.50;99.90;;;;;;4182310;28;20893;-62
2022/03/05 06:28:33;;;;;;;56.17;23.47;;;1.60;99.90;;;;;;4189359;28;20778;-72
2022/03/05 06:30:35;;;;;;;50.40;23.00;;;1.60;99.90;;;;;;4194216;28;20273;-72
2022/03/05 06:32:36;;;;;;;54.90;24.03;;;1.70;99.90;;;;;;4193954;28;20281;-48
2022/03/05 06:34:37;;;;;;;56.37;21.47;;;1.80;99.90;;;;;;4180977;28;20278;-53
2022/03/05 06:36:38;;;;;;;49.70;22.90;;;1.90;99.90;;;;;;4185726;28;20677;-82
2022/03/05 06:40:50;;;;;;;;;;;2.20;99.90;;;;;;4357898;23;20359;-78
2022/03/05 06:42:51;;;;;;;;;;;2.30;99.90;;;;;;4174975;28;19912;-71
2022/03/05 06:44:52;;;;;;;;;;;2.40;99.90;;;;;;4166411;28;19916;-71
2022/03/05 06:46:53;;;;;;;47.42;19.48;;;2.60;99.90;;;;;;4159451;28;19912;-76
2022/03/05 06:48:54;;;;;;;67.10;29.70;;;2.70;99.90;;;;;;4169981;28;20170;-88
2022/03/05 06:50:55;;;;;;;66.07;29.00;;;2.80;99.90;;;;;;4176833;28;20312;-81
2022/03/05 06:52:56;;;;;;;67.27;30.10;;;3.00;99.90;;;;;;4177116;28;20312;-52
2022/03/05 06:54:58;;;;;;;66.20;30.33;;;3.10;99.90;;;;;;4175393;28;20327;-69
2022/03/05 06:56:59;;;;;;;48.23;21.23;;;3.40;99.90;;;;;;4170360;28;20289;-72
2022/03/05 06:59:00;;;;;;;38.60;20.13;;;3.50;99.90;;;;;;4159379;28;20699;-87
2022/03/05 07:03:12;;;;;;;;;;;3.70;99.90;;;;;;4341103;23;20718;-74
2022/03/05 07:05:13;;;;;;;;;;;4.10;99.90;;;;;;4204026;28;19904;-85
2022/03/05 07:07:14;;;;;;;45.80;20.17;;;4.40;99.90;;;;;;4197068;28;19981;-68
2022/03/05 07:09:15;;;;;;;41.67;20.07;;;4.70;99.90;;;;;;4191027;28;20837;-65
2022/03/05 07:11:16;;;;;;;43.07;21.07;;;4.90;99.90;;;;;;4192971;28;20273;-81
2022/03/05 07:13:18;;;;;;;41.43;19.20;;;4.90;99.90;;;;;;4191529;28;20269;-91
2022/03/05 07:15:19;;;;;;;43.37;19.97;;;4.90;99.90;;;;;;4192652;28;20274;-82
2022/03/05 07:17:20;;;;;;;46.57;19.67;;;4.90;99.90;;;;;;4193226;28;20292;-84
2022/03/05 07:19:21;;;;;;;40.93;20.03;;;4.80;99.90;;;;;;4197965;28;20327;-59
2022/03/05 07:21:22;;;;;;;40.70;19.80;;;4.80;99.90;;;;;;4208873;28;20268;-73
2022/03/05 07:23:24;;;;;;;39.30;18.57;;;4.80;99.90;;;;;;4208032;28;20331;-69
2022/03/05 07:25:25;;;;;;;42.50;20.07;;;4.70;99.90;;;;;;4209472;28;20249;-65
2022/03/05 07:27:27;;;;;;;45.33;20.53;;;4.60;99.90;;;;;;4208759;28;20342;-73
2022/03/05 07:29:29;;;;;;;39.97;19.30;;;4.60;99.90;;;;;;4209342;28;20345;-57
2022/03/05 07:31:30;;;;;;;34.93;18.10;;;4.50;99.90;;;;;;4207945;28;20272;-56
2022/03/05 07:33:31;;;;;;;42.83;19.93;;;4.30;99.90;;;;;;4209529;28;20268;-90
2022/03/05 07:35:32;;;;;;;43.37;18.63;;;4.30;99.90;;;;;;4206973;28;20288;-79
2022/03/05 07:37:34;;;;;;;38.03;19.90;;;4.20;99.90;;;;;;4194377;28;20269;-86
2022/03/05 07:39:35;;;;;;;41.03;19.63;;;4.20;99.90;;;;;;4192279;28;20314;-67
2022/03/05 07:41:37;;;;;;;39.73;19.10;;;4.10;99.90;;;;;;4191567;28;20274;-50
2022/03/05 07:43:39;;;;;;;47.07;20.00;;;4.00;99.90;;;;;;4190717;28;20304;-82
2022/03/05 07:45:40;;;;;;;43.10;20.23;;;3.90;99.90;;;;;;4191974;28;20824;-75
2022/03/05 07:47:41;;;;;;;40.30;19.03;;;3.90;99.90;;;;;;4191611;28;20300;-84
2022/03/05 07:49:42;;;;;;;43.23;20.70;;;3.90;99.90;;;;;;4191354;28;20297;-83
2022/03/05 07:51:43;;;;;;;42.63;20.57;;;4.10;99.90;;;;;;4191798;28;20249;-78
2022/03/05 07:53:45;;;;;;;35.97;18.80;;;4.10;99.90;;;;;;4191456;28;20354;-46
2022/03/05 07:55:46;;;;;;;37.27;19.37;;;4.20;99.90;;;;;;4192161;28;20339;-80
2022/03/05 07:57:47;;;;;;;46.40;20.50;;;4.30;99.90;;;;;;4191145;28;21044;-65
2022/03/05 07:59:48;;;;;;;41.67;19.23;;;4.40;99.90;;;;;;4193627;28;20274;-48
2022/03/05 08:01:49;;;;;;;44.27;20.13;;;4.60;99.90;;;;;;4193921;28;20754;-61
2022/03/05 08:03:50;;;;;;;37.97;19.60;;;4.70;99.90;;;;;;4195480;28;20303;-60
2022/03/05 08:05:52;;;;;;;43.10;21.07;;;4.80;99.90;;;;;;4195691;28;20791;-78
2022/03/05 08:07:56;;;;;;;38.43;19.77;;;5.00;99.90;;;;;;4193308;28;20682;-88
2022/03/05 08:09:58;;;;;;;45.60;19.13;;;5.40;99.90;;;;;;4193390;28;20307;-77
2022/03/05 08:11:59;;;;;;;41.10;20.70;;;5.90;99.90;;;;;;4194248;28;20265;-71
2022/03/05 08:14:00;;;;;;;42.10;21.03;;;6.30;99.90;;;;;;4192022;28;20667;-80
2022/03/05 08:16:01;;;;;;;42.80;19.90;;;6.60;99.90;;;;;;4193011;28;20261;-88
2022/03/05 08:18:03;;;;;;;42.33;19.83;;;6.90;99.90;;;;;;4192400;28;20656;-83
2022/03/05 08:20:05;;;;;;;40.77;19.97;;;6.40;99.90;;;;;;4193352;28;20269;-82
2022/03/05 08:22:07;;;;;;;53.17;22.37;;;6.10;99.90;;;;;;4192896;28;20265;-83
2022/03/05 08:24:08;;;;;;;39.53;20.43;;;5.60;99.90;;;;;;4206632;28;20276;-79
2022/03/05 08:26:13;;;;;;;40.47;19.17;;;5.40;99.90;;;;;;4210058;28;20820;-76
2022/03/05 08:28:17;;;;;;;38.03;19.63;;;5.20;99.90;;;;;;4213252;28;20715;-54
2022/03/05 08:30:18;;;;;;;26.80;15.53;;;5.20;99.90;;;;;;4294652;22;21067;-77
2022/03/05 08:32:20;;;;;;;38.53;16.87;;;4.80;99.90;;;;;;4197819;28;20346;-78
2022/03/05 08:34:21;;;;;;;33.37;16.50;;;4.50;99.90;;;;;;4207141;28;20338;-62
2022/03/05 08:36:22;;;;;;;39.27;16.93;;;4.10;99.90;;;;;;4192092;28;21034;-72
2022/03/05 08:38:23;;;;;;;30.23;16.37;;;3.90;99.90;;;;;;4189532;28;20395;-61
2022/03/05 08:40:24;;;;;;;34.00;18.13;;;3.90;99.90;;;;;;4205530;28;20272;-61
2022/03/05 08:42:25;;;;;;;33.00;15.73;;;4.00;99.90;;;;;;4207003;28;20425;-66
2022/03/05 08:44:27;;;;;;;34.77;17.43;;;3.90;99.90;;;;;;4208166;28;20624;-57
2022/03/05 08:46:28;;;;;;;34.77;15.93;;;3.70;99.90;;;;;;4187884;28;20327;-55
2022/03/05 08:52:51;;;;;;;31.35;14.73;;;3.40;99.90;;;;;;4247623;22;19958;-58
2022/03/05 08:54:52;;;;;;;37.63;16.97;;;3.40;99.90;;;;;;4184488;28;20422;-76
2022/03/05 08:56:53;;;;;;;31.10;15.60;;;3.40;99.90;;;;;;4178794;28;20681;-76
2022/03/05 09:01:06;;;;;;;;;;;3.30;99.90;;;;;;4196200;22;20305;-78
2022/03/05 09:03:10;;;;;;;29.53;14.90;;;3.40;99.90;;;;;;4174538;28;19955;-74
2022/03/05 09:05:14;;;;;;;30.93;14.77;;;3.40;99.90;;;;;;4188083;28;20285;-61
2022/03/05 09:07:15;;;;;;;30.07;15.70;;;3.50;99.90;;;;;;4189401;28;20290;-52
2022/03/05 09:09:16;;;;;;;25.73;14.63;;;3.50;99.90;;;;;;4177330;28;20770;-86
2022/03/05 09:11:18;;;;;;;32.67;16.70;;;3.90;99.90;;;;;;4172999;28;20277;-78
2022/03/05 09:13:19;;;;;;;26.90;14.17;;;4.20;99.90;;;;;;4173289;28;20258;-73
2022/03/05 09:15:20;;;;;;;30.50;15.57;;;4.60;99.90;;;;;;4174426;28;20278;-53
2022/03/05 09:17:21;;;;;;;28.07;14.63;;;4.90;99.90;;;;;;4174503;28;20343;-50
2022/03/05 09:19:22;;;;;;;31.50;14.83;;;5.40;99.90;;;;;;4175040;28;20278;-75
2022/03/05 09:23:29;;;;;;;29.10;15.60;;;5.40;99.90;;;;;;4195225;28;20309;-63
2022/03/05 09:25:30;;;;;;;29.50;14.97;;;5.30;99.90;;;;;;4192191;28;20720;-66
2022/03/05 09:27:33;;;;;;;32.90;14.67;;;5.30;99.90;;;;;;4205804;28;20316;-67
2022/03/05 09:29:34;;;;;;;27.93;14.03;;;5.30;99.90;;;;;;4206764;28;20281;-52
2022/03/05 09:31:36;;;;;;;28.80;14.87;;;5.40;99.90;;;;;;4201731;28;20272;-76
2022/03/05 09:33:37;;;;;;;27.30;13.97;;;5.40;99.90;;;;;;4207184;28;20249;-50
2022/03/05 09:37:56;;;;;;;31.40;15.70;;;5.60;99.90;;;;;;4987933;22;21323;-67
2022/03/05 09:39:58;;;;;;;30.00;15.37;;;5.50;99.90;;;;;;4178948;28;20760;-85
2022/03/05 09:42:01;;;;;;;27.20;13.60;;;5.40;99.90;;;;;;4189075;28;20749;-77
2022/03/05 09:44:03;;;;;;;23.43;12.40;;;5.30;99.90;;;;;;4173827;28;20270;-61
2022/03/05 09:46:04;;;;;;;22.67;13.00;;;5.20;99.90;;;;;;4173134;28;20262;-68
2022/03/05 09:48:05;;;;;;;25.60;13.50;;;5.00;99.90;;;;;;4188646;28;20273;-91
2022/03/05 09:50:07;;;;;;;25.00;13.53;;;4.80;99.90;;;;;;4190331;28;20293;-55
2022/03/05 09:52:09;;;;;;;30.50;14.10;;;4.70;99.90;;;;;;4181763;28;20281;-49
2022/03/05 09:54:11;;;;;;;21.90;11.73;;;4.70;99.90;;;;;;4177043;28;20292;-52
2022/03/05 09:56:12;;;;;;;21.13;12.83;;;4.50;99.90;;;;;;4190435;28;20285;-80
2022/03/05 09:58:13;;;;;;;26.10;12.70;;;4.40;99.90;;;;;;4183923;28;20273;-75
2022/03/05 10:00:14;;;;;;;29.10;12.07;;;4.30;99.90;;;;;;4190980;28;20363;-51
2022/03/05 10:02:18;;;;;;;29.33;12.50;;;4.20;99.90;;;;;;4242034;22;20404;-58
2022/03/05 10:04:24;;;;;;;22.50;11.23;;;4.10;99.90;;;;;;4170113;28;20282;-61
2022/03/05 10:06:28;;;;;;;24.73;11.50;;;4.00;99.90;;;;;;4174105;28;20270;-51
2022/03/05 10:08:30;;;;;;;34.63;17.60;;;3.90;99.90;;;;;;4159865;28;20294;-60
2022/03/05 10:10:40;;;;;;;21.30;11.13;;;4.00;99.90;;;;;;4149896;28;20598;-70
2022/03/05 10:12:41;;;;;;;20.15;11.07;;;4.10;99.90;;;;;;4167931;28;20347;-68
2022/03/05 10:14:42;;;;;;;20.20;11.37;;;4.10;99.90;;;;;;4157835;28;20025;-59
2022/03/05 10:16:44;;;;;;;31.73;13.33;;;4.10;99.90;;;;;;4161792;28;20273;-61
2022/03/05 10:18:45;;;;;;;20.93;11.80;;;4.10;99.90;;;;;;4172531;28;20360;-55
2022/03/05 10:20:52;;;;;;;28.67;13.23;;;4.00;99.90;;;;;;4173106;28;20304;-71
2022/03/05 10:23:02;;;;;;;23.53;12.27;;;4.00;99.90;;;;;;4172747;28;20266;-62
2022/03/05 10:25:04;;;;;;;26.33;11.95;;;4.10;99.90;;;;;;4507271;22;20842;-59
2022/03/05 10:27:09;;;;;;;26.83;12.03;;;4.10;99.90;;;;;;4156121;28;20033;-51
2022/03/05 10:29:22;;;;;;;23.07;12.10;;;4.10;99.90;;;;;;4162670;28;20357;-41
2022/03/05 10:31:24;;;;;;;24.60;11.87;;;4.00;99.90;;;;;;4156698;28;21166;-66
2022/03/05 10:33:28;;;;;;;22.53;11.03;;;4.00;99.90;;;;;;4163110;28;20340;-73
2022/03/05 10:35:30;;;;;;;23.37;11.97;;;4.10;99.90;;;;;;4172666;28;20331;-78
2022/03/05 10:37:34;;;;;;;25.57;12.47;;;4.20;99.90;;;;;;4171981;28;20266;-68
2022/03/05 10:39:35;;;;;;;24.33;13.13;;;4.30;99.90;;;;;;4247553;22;20284;-58
2022/03/05 10:41:38;;;;;;;22.43;11.90;;;4.40;99.90;;;;;;4162514;28;20333;-50
2022/03/05 10:43:40;;;;;;;22.70;11.53;;;4.60;99.90;;;;;;4436679;22;20364;-66
2022/03/05 10:45:50;;;;;;;22.37;11.87;;;4.50;99.90;;;;;;4291656;22;20384;-70
2022/03/05 10:47:51;;;;;;;20.85;11.88;;;4.40;99.90;;;;;;4162626;28;20298;-57
2022/03/05 10:49:52;;;;;;;20.67;11.23;;;4.40;99.90;;;;;;4165960;28;20126;-76